Detall de PIREP

Printer-friendly versionPDF version

[2013/10/06 05:53:00]
Flight IATA:CT0001
Pilot Number:041
Company ICAO:CAT
Aircraft Type:C172/A
PAX:2
Departing Airport: LEGE
Destination Airport: LELC
Alternate Airport:LEVC
Online: VATSIM
Route:DCT MAMUK H110 SEROX A34 ALT DCT
Flight Level:FL090
No Slew and time accel
No pause
Crash detect
Detect pilot in Cockpit between each 30 and 45 minutes
05:53 Zero fuel Weight: 2010 Lbs, Fuel Weight: 335 Lbs
05:53 VATSIM:LEGE 060530Z VRB02KT 9999 FEW040 SCT060 15/15 Q1021
05:53 VATSIM:LELC 052100Z 04006KT 9999 FEW012 23/21 Q1021 NOSIG
05:53 VOICE CATALONIAN
05:57 Parking Brakes off
06:03 Take-off
06:03 Take off Weight: 2344 Lbs
06:03 Wind: 042º @ 002 Knots Heading: 015º
06:03 POS N41º 54´ 01´´ E002º 45´ 37´´
06:03 Flaps:1 at 72 Knots
06:03 Flaps:0 at 67 Knots
07:12 UTC Jump: removed 1 Hour from Log
06:15 UTC Jump: added 1 Hour to Log
06:18 Wind:331º@003 Knots Heading: 263º Ground Speed: 112 Knots Altitude 6729 ft
06:24 TOC
06:24 Fuel Weight: 314 Lb
06:33 Wind:309º@004 Knots Heading: 261º Ground Speed: 110 Knots Altitude 9274 ft
06:48 Wind:341º@012 Knots Heading: 266º Ground Speed: 110 Knots Altitude 9278 ft
07:03 Wind:341º@012 Knots Heading: 244º Ground Speed: 114 Knots Altitude 9284 ft
07:18 Wind:341º@012 Knots Heading: 196º Ground Speed: 122 Knots Altitude 9324 ft
07:33 Wind:327º@010 Knots Heading: 199º Ground Speed: 118 Knots Altitude 9350 ft
07:48 Wind:232º@002 Knots Heading: 196º Ground Speed: 111 Knots Altitude 9307 ft
08:03 Wind:232º@002 Knots Heading: 194º Ground Speed: 111 Knots Altitude 9291 ft
08:18 Wind:232º@002 Knots Heading: 177º Ground Speed: 112 Knots Altitude 9314 ft
08:33 Wind:181º@002 Knots Heading: 179º Ground Speed: 112 Knots Altitude 9281 ft
08:37 TOD
08:37 Fuel Weight: 214 Lb
08:48 Wind:169º@001 Knots Heading: 195º Ground Speed: 113 Knots Altitude 4734 ft
09:03 Wind:071º@008 Knots Heading: 222º Ground Speed: 105 Knots Altitude 1994 ft
09:10 Flaps:1 at 83 Knots
09:13 Flaps:2 at 78 Knots
09:13 Flaps:3 at 68 Knots
09:15 TouchDown:Rate -116 ft/min Speed: 57 Knots
09:15 Flaps:2 at 49 Knots
09:15 Flaps:0 at 47 Knots
09:15 VATSIM:LELC 060900Z 06009KT 030V100 9999 FEW020TCU 24/19 Q1022 NOSIG
09:15 Land
09:15 Wind:070º@008 Knots
09:15 Heading: 047º
09:15 Flight Duration: 03:12
09:15 Landing Weight: 2199 Lbs
09:15 POS N37º 46´ 22´´ W000º 48´ 53´´
09:19 Parking brakes on
09:19 Block to Block Duration: 03:22
09:19 Final Fuel: 187 Lbls
09:19 Spent Fuel: 147 Lbls
09:19 Flight Length: 354 NM
09:19 TOD Land Length: 67 NM

Exportar CSV

Powered by Drupal - Modified by Danger4k